Main page
METAR-TAF:

METAR-TAF

Airports :

Kassel, Germany

Kassel Airport

latitude: 51-24N, longitude: 009-23E, elevation: 277 m

Current weather observation

The report was made 30 minutes ago, at 14:50 UTC
Wind 7 kt from the Northwest
Temperature 14°C
Humidity 72%
Pressure 1017 hPa
Visibility 10 km or more
Few clouds at a height of 2500 ft
Scattered clouds at a height of 3200 ft
Broken clouds at a height of 8200 ft

METAR: EDVK 191450Z 32007KT 9999 FEW025 SCT032 BKN082 14/09 Q1017

Time: 17:20 (15:20 UTC)

Forecast

The report was made 1 hour and 20 minutes ago, at 14:00 UTC
Forecast valid from 19 at 15 UTC to 19 at 24 UTC
Wind 5 kt from the West/Northwest
Visibility 10 km or more
Scattered clouds at a height of 3500 ft
Becoming
from 19 at 16 UTC to 19 at 18 UTC
Wind 3 kt from variable directions

TAF: EDVK 191400Z 1915/1924 29005KT 9999 SCT035 BECMG 1916/1918 VRB03KT

Weather observations and forecasts of more than 4000 airports (METAR and TAF reports).

The available stations are represented by yellow and red dots on the map.

Hover mouse over dot to see the name of the station.

Then click to see weather observations and forecasts.

To change the map : click on the green buttons with a black cross to zoom in, on the green button with a dash to zoom out, or on the green arrows for adjacent maps.


METAR-TAF: